Terminal Aerodrome Forecast
Issued by NWS Topeka, KS

Home | Current Version | Previous Version | Text Only | Print | Product List | Glossary Off
Versions: 1 2 3 4 5 6 7 8 9 10 11 12 13 14 15 16 17 18 19 20

919
FTUS43 KTOP 141922 AAB
TAFTOP
TAF AMD
KTOP 141922Z 1419/1518 17006KT P6SM OVC010
     FM150000 17006KT 3SM BR OVC008
     FM150500 VRB05KT 6SM -SHRA OVC008
     FM151200 33008KT P6SM SKC=

USA.gov is the U.S. government's official web portal to all federal, state and local government web resources and services.